sensor_id;sensor_type;location;lat;lon;timestamp;P1;durP1;ratioP1;P2;durP2;ratioP2
31043;SDS011;17710;52.520;13.352;2023-11-18T00:00:38;9.57;;;5.22;;
31043;SDS011;17710;52.520;13.352;2023-11-18T00:03:06;8.40;;;5.03;;
31043;SDS011;17710;52.520;13.352;2023-11-18T00:05:32;13.20;;;6.03;;
31043;SDS011;17710;52.520;13.352;2023-11-18T00:08:00;6.50;;;4.95;;
31043;SDS011;17710;52.520;13.352;2023-11-18T00:10:27;6.15;;;4.93;;
31043;SDS011;17710;52.520;13.352;2023-11-18T00:12:54;7.32;;;5.35;;
31043;SDS011;17710;52.520;13.352;2023-11-18T00:15:20;7.38;;;4.85;;
31043;SDS011;17710;52.520;13.352;2023-11-18T00:17:47;9.70;;;5.95;;
31043;SDS011;17710;52.520;13.352;2023-11-18T00:20:13;6.00;;;4.75;;
31043;SDS011;17710;52.520;13.352;2023-11-18T00:22:41;12.25;;;6.82;;
31043;SDS011;17710;52.520;13.352;2023-11-18T00:25:10;8.20;;;5.50;;
31043;SDS011;17710;52.520;13.352;2023-11-18T00:27:39;6.38;;;5.15;;
31043;SDS011;17710;52.520;13.352;2023-11-18T00:30:06;5.80;;;4.70;;
31043;SDS011;17710;52.520;13.352;2023-11-18T00:32:35;6.93;;;5.05;;
31043;SDS011;17710;52.520;13.352;2023-11-18T00:35:02;7.38;;;5.32;;
31043;SDS011;17710;52.520;13.352;2023-11-18T00:37:29;8.57;;;5.22;;
31043;SDS011;17710;52.520;13.352;2023-11-18T00:39:56;7.00;;;5.38;;
31043;SDS011;17710;52.520;13.352;2023-11-18T00:42:23;5.80;;;5.03;;
31043;SDS011;17710;52.520;13.352;2023-11-18T00:44:51;11.48;;;5.57;;
31043;SDS011;17710;52.520;13.352;2023-11-18T00:47:17;9.90;;;5.43;;
31043;SDS011;17710;52.520;13.352;2023-11-18T00:49:44;7.38;;;5.25;;
31043;SDS011;17710;52.520;13.352;2023-11-18T00:52:10;8.77;;;5.43;;
31043;SDS011;17710;52.520;13.352;2023-11-18T00:54:37;7.78;;;5.50;;
31043;SDS011;17710;52.520;13.352;2023-11-18T00:57:03;7.38;;;5.55;;
31043;SDS011;17710;52.520;13.352;2023-11-18T00:59:31;5.97;;;5.20;;
31043;SDS011;17710;52.520;13.352;2023-11-18T01:01:58;7.10;;;5.45;;
31043;SDS011;17710;52.520;13.352;2023-11-18T01:04:24;8.35;;;5.25;;
31043;SDS011;17710;52.520;13.352;2023-11-18T01:06:51;6.57;;;5.45;;
31043;SDS011;17710;52.520;13.352;2023-11-18T01:09:17;7.15;;;5.55;;
31043;SDS011;17710;52.520;13.352;2023-11-18T01:11:44;7.65;;;5.32;;
31043;SDS011;17710;52.520;13.352;2023-11-18T01:14:10;7.20;;;5.30;;
31043;SDS011;17710;52.520;13.352;2023-11-18T01:16:39;6.22;;;5.28;;
31043;SDS011;17710;52.520;13.352;2023-11-18T01:19:05;6.07;;;5.00;;
31043;SDS011;17710;52.520;13.352;2023-11-18T01:21:34;7.60;;;5.65;;
31043;SDS011;17710;52.520;13.352;2023-11-18T01:24:00;7.57;;;5.18;;
31043;SDS011;17710;52.520;13.352;2023-11-18T01:26:27;8.82;;;5.47;;
31043;SDS011;17710;52.520;13.352;2023-11-18T01:28:53;7.90;;;5.22;;
31043;SDS011;17710;52.520;13.352;2023-11-18T01:31:20;5.80;;;4.75;;
31043;SDS011;17710;52.520;13.352;2023-11-18T01:33:48;5.72;;;5.13;;
31043;SDS011;17710;52.520;13.352;2023-11-18T01:36:15;6.72;;;5.07;;
31043;SDS011;17710;52.520;13.352;2023-11-18T01:38:43;7.30;;;5.10;;
31043;SDS011;17710;52.520;13.352;2023-11-18T01:41:09;8.27;;;5.18;;
31043;SDS011;17710;52.520;13.352;2023-11-18T01:43:36;6.25;;;4.68;;
31043;SDS011;17710;52.520;13.352;2023-11-18T01:46:04;7.63;;;5.03;;
31043;SDS011;17710;52.520;13.352;2023-11-18T01:48:35;5.95;;;5.10;;
31043;SDS011;17710;52.520;13.352;2023-11-18T01:51:05;7.20;;;4.97;;
31043;SDS011;17710;52.520;13.352;2023-11-18T01:53:35;5.97;;;4.65;;
31043;SDS011;17710;52.520;13.352;2023-11-18T01:56:03;7.32;;;5.07;;
31043;SDS011;17710;52.520;13.352;2023-11-18T01:58:31;9.70;;;4.78;;
31043;SDS011;17710;52.520;13.352;2023-11-18T02:01:00;6.22;;;4.60;;
31043;SDS011;17710;52.520;13.352;2023-11-18T02:03:27;7.25;;;5.35;;
31043;SDS011;17710;52.520;13.352;2023-11-18T02:05:55;6.97;;;4.93;;
31043;SDS011;17710;52.520;13.352;2023-11-18T02:08:23;7.50;;;5.50;;
31043;SDS011;17710;52.520;13.352;2023-11-18T02:10:53;6.10;;;5.20;;
31043;SDS011;17710;52.520;13.352;2023-11-18T02:13:40;6.28;;;5.03;;
31043;SDS011;17710;52.520;13.352;2023-11-18T02:16:11;6.40;;;4.85;;
31043;SDS011;17710;52.520;13.352;2023-11-18T02:18:38;6.45;;;4.90;;
31043;SDS011;17710;52.520;13.352;2023-11-18T02:21:07;6.53;;;4.43;;
31043;SDS011;17710;52.520;13.352;2023-11-18T02:23:37;6.45;;;5.05;;
31043;SDS011;17710;52.520;13.352;2023-11-18T02:26:08;5.22;;;4.65;;
31043;SDS011;17710;52.520;13.352;2023-11-18T02:28:34;8.07;;;4.85;;
31043;SDS011;17710;52.520;13.352;2023-11-18T02:31:02;7.60;;;4.75;;
31043;SDS011;17710;52.520;13.352;2023-11-18T02:33:35;5.43;;;4.55;;
31043;SDS011;17710;52.520;13.352;2023-11-18T02:36:08;5.30;;;4.45;;
31043;SDS011;17710;52.520;13.352;2023-11-18T02:38:39;7.93;;;4.90;;
31043;SDS011;17710;52.520;13.352;2023-11-18T02:41:15;7.88;;;5.68;;
31043;SDS011;17710;52.520;13.352;2023-11-18T02:43:43;7.10;;;5.65;;
31043;SDS011;17710;52.520;13.352;2023-11-18T02:46:12;7.45;;;5.00;;
31043;SDS011;17710;52.520;13.352;2023-11-18T02:48:38;8.10;;;5.28;;
31043;SDS011;17710;52.520;13.352;2023-11-18T02:51:06;7.03;;;4.88;;
31043;SDS011;17710;52.520;13.352;2023-11-18T02:53:33;8.63;;;5.53;;
31043;SDS011;17710;52.520;13.352;2023-11-18T02:55:59;6.50;;;5.30;;
31043;SDS011;17710;52.520;13.352;2023-11-18T02:58:29;8.35;;;5.38;;
31043;SDS011;17710;52.520;13.352;2023-11-18T03:00:55;7.30;;;5.32;;
31043;SDS011;17710;52.520;13.352;2023-11-18T03:03:22;8.18;;;5.18;;
31043;SDS011;17710;52.520;13.352;2023-11-18T03:05:48;7.28;;;5.50;;
31043;SDS011;17710;52.520;13.352;2023-11-18T03:08:15;8.18;;;5.65;;
31043;SDS011;17710;52.520;13.352;2023-11-18T03:10:41;6.43;;;5.20;;
31043;SDS011;17710;52.520;13.352;2023-11-18T03:13:09;8.05;;;5.35;;
31043;SDS011;17710;52.520;13.352;2023-11-18T03:15:38;7.22;;;5.28;;
31043;SDS011;17710;52.520;13.352;2023-11-18T03:18:05;7.15;;;5.03;;
31043;SDS011;17710;52.520;13.352;2023-11-18T03:20:33;7.55;;;5.45;;
31043;SDS011;17710;52.520;13.352;2023-11-18T03:22:59;9.00;;;5.50;;
31043;SDS011;17710;52.520;13.352;2023-11-18T03:25:27;9.07;;;5.68;;
31043;SDS011;17710;52.520;13.352;2023-11-18T03:27:53;8.27;;;5.75;;
31043;SDS011;17710;52.520;13.352;2023-11-18T03:30:19;10.57;;;5.85;;
31043;SDS011;17710;52.520;13.352;2023-11-18T03:32:47;6.30;;;5.03;;
31043;SDS011;17710;52.520;13.352;2023-11-18T03:35:14;7.22;;;5.20;;
31043;SDS011;17710;52.520;13.352;2023-11-18T03:37:41;6.45;;;5.30;;
31043;SDS011;17710;52.520;13.352;2023-11-18T03:40:08;7.65;;;5.15;;
31043;SDS011;17710;52.520;13.352;2023-11-18T03:42:35;7.50;;;5.28;;
31043;SDS011;17710;52.520;13.352;2023-11-18T03:45:02;8.13;;;4.43;;
31043;SDS011;17710;52.520;13.352;2023-11-18T03:47:29;7.18;;;5.38;;
31043;SDS011;17710;52.520;13.352;2023-11-18T03:50:00;7.90;;;5.25;;
31043;SDS011;17710;52.520;13.352;2023-11-18T03:52:27;9.48;;;5.20;;
31043;SDS011;17710;52.520;13.352;2023-11-18T03:54:54;6.55;;;4.88;;
31043;SDS011;17710;52.520;13.352;2023-11-18T03:57:21;9.18;;;5.03;;
31043;SDS011;17710;52.520;13.352;2023-11-18T03:59:47;8.05;;;4.82;;
31043;SDS011;17710;52.520;13.352;2023-11-18T04:02:14;7.22;;;5.45;;
31043;SDS011;17710;52.520;13.352;2023-11-18T04:04:40;8.00;;;4.82;;
31043;SDS011;17710;52.520;13.352;2023-11-18T04:07:08;6.00;;;4.80;;
31043;SDS011;17710;52.520;13.352;2023-11-18T04:09:34;7.70;;;5.53;;
31043;SDS011;17710;52.520;13.352;2023-11-18T04:12:01;6.93;;;4.75;;
31043;SDS011;17710;52.520;13.352;2023-11-18T04:14:28;6.65;;;4.97;;
31043;SDS011;17710;52.520;13.352;2023-11-18T04:16:54;9.27;;;4.97;;
31043;SDS011;17710;52.520;13.352;2023-11-18T04:19:22;11.65;;;5.65;;
31043;SDS011;17710;52.520;13.352;2023-11-18T04:24:15;13.18;;;6.00;;
31043;SDS011;17710;52.520;13.352;2023-11-18T04:26:42;10.10;;;5.63;;
31043;SDS011;17710;52.520;13.352;2023-11-18T04:29:08;8.52;;;5.65;;
31043;SDS011;17710;52.520;13.352;2023-11-18T04:31:35;8.68;;;5.55;;
31043;SDS011;17710;52.520;13.352;2023-11-18T04:34:02;11.38;;;6.50;;
31043;SDS011;17710;52.520;13.352;2023-11-18T04:36:29;11.50;;;6.55;;
31043;SDS011;17710;52.520;13.352;2023-11-18T04:38:56;10.50;;;6.72;;
31043;SDS011;17710;52.520;13.352;2023-11-18T04:41:24;9.07;;;6.03;;
31043;SDS011;17710;52.520;13.352;2023-11-18T04:43:51;12.65;;;7.05;;
31043;SDS011;17710;52.520;13.352;2023-11-18T04:46:18;9.48;;;5.65;;
31043;SDS011;17710;52.520;13.352;2023-11-18T04:48:45;10.55;;;6.57;;
31043;SDS011;17710;52.520;13.352;2023-11-18T04:51:11;10.40;;;6.20;;
31043;SDS011;17710;52.520;13.352;2023-11-18T04:53:38;10.18;;;7.05;;
31043;SDS011;17710;52.520;13.352;2023-11-18T04:56:05;10.48;;;5.82;;
31043;SDS011;17710;52.520;13.352;2023-11-18T04:58:36;8.60;;;6.00;;
31043;SDS011;17710;52.520;13.352;2023-11-18T05:01:03;9.50;;;6.15;;
31043;SDS011;17710;52.520;13.352;2023-11-18T05:03:30;9.45;;;6.40;;
31043;SDS011;17710;52.520;13.352;2023-11-18T05:05:56;7.53;;;5.93;;
31043;SDS011;17710;52.520;13.352;2023-11-18T05:08:23;9.52;;;6.53;;
31043;SDS011;17710;52.520;13.352;2023-11-18T05:10:49;10.93;;;6.15;;
31043;SDS011;17710;52.520;13.352;2023-11-18T05:13:16;9.98;;;6.28;;
31043;SDS011;17710;52.520;13.352;2023-11-18T05:15:45;12.00;;;6.35;;
31043;SDS011;17710;52.520;13.352;2023-11-18T05:18:13;8.30;;;6.50;;
31043;SDS011;17710;52.520;13.352;2023-11-18T05:20:40;8.65;;;6.25;;
31043;SDS011;17710;52.520;13.352;2023-11-18T05:23:07;9.13;;;5.75;;
31043;SDS011;17710;52.520;13.352;2023-11-18T05:25:35;10.95;;;6.72;;
31043;SDS011;17710;52.520;13.352;2023-11-18T05:28:02;8.60;;;6.25;;
31043;SDS011;17710;52.520;13.352;2023-11-18T05:30:29;10.63;;;6.05;;
31043;SDS011;17710;52.520;13.352;2023-11-18T05:32:57;11.73;;;6.22;;
31043;SDS011;17710;52.520;13.352;2023-11-18T05:35:23;9.75;;;6.55;;
31043;SDS011;17710;52.520;13.352;2023-11-18T05:37:53;10.18;;;6.57;;
31043;SDS011;17710;52.520;13.352;2023-11-18T05:40:19;9.88;;;6.40;;
31043;SDS011;17710;52.520;13.352;2023-11-18T05:42:46;13.48;;;7.30;;
31043;SDS011;17710;52.520;13.352;2023-11-18T05:45:16;10.77;;;7.25;;
31043;SDS011;17710;52.520;13.352;2023-11-18T05:47:52;10.48;;;6.60;;
31043;SDS011;17710;52.520;13.352;2023-11-18T05:50:20;10.82;;;7.40;;
31043;SDS011;17710;52.520;13.352;2023-11-18T05:52:47;10.02;;;6.82;;
31043;SDS011;17710;52.520;13.352;2023-11-18T05:55:14;14.10;;;7.07;;
31043;SDS011;17710;52.520;13.352;2023-11-18T05:57:41;12.40;;;6.63;;
31043;SDS011;17710;52.520;13.352;2023-11-18T06:00:10;11.90;;;6.93;;
31043;SDS011;17710;52.520;13.352;2023-11-18T06:02:40;10.63;;;6.95;;
31043;SDS011;17710;52.520;13.352;2023-11-18T06:05:07;11.75;;;7.70;;
31043;SDS011;17710;52.520;13.352;2023-11-18T06:07:35;8.50;;;6.50;;
31043;SDS011;17710;52.520;13.352;2023-11-18T06:10:02;10.10;;;6.97;;
31043;SDS011;17710;52.520;13.352;2023-11-18T06:12:30;9.05;;;6.70;;
31043;SDS011;17710;52.520;13.352;2023-11-18T06:14:57;17.83;;;6.85;;
31043;SDS011;17710;52.520;13.352;2023-11-18T06:17:23;13.70;;;6.82;;
31043;SDS011;17710;52.520;13.352;2023-11-18T06:19:49;12.15;;;7.28;;
31043;SDS011;17710;52.520;13.352;2023-11-18T06:22:16;10.25;;;6.35;;
31043;SDS011;17710;52.520;13.352;2023-11-18T06:24:43;8.60;;;6.35;;
31043;SDS011;17710;52.520;13.352;2023-11-18T06:27:10;9.30;;;7.00;;
31043;SDS011;17710;52.520;13.352;2023-11-18T06:29:37;10.27;;;7.18;;
31043;SDS011;17710;52.520;13.352;2023-11-18T06:32:04;9.23;;;6.60;;
31043;SDS011;17710;52.520;13.352;2023-11-18T06:34:33;10.55;;;7.22;;
31043;SDS011;17710;52.520;13.352;2023-11-18T06:36:59;11.18;;;7.63;;
31043;SDS011;17710;52.520;13.352;2023-11-18T06:39:25;11.90;;;7.50;;
31043;SDS011;17710;52.520;13.352;2023-11-18T06:41:56;11.20;;;6.53;;
31043;SDS011;17710;52.520;13.352;2023-11-18T06:44:23;9.57;;;6.63;;
31043;SDS011;17710;52.520;13.352;2023-11-18T06:46:50;10.88;;;6.82;;
31043;SDS011;17710;52.520;13.352;2023-11-18T06:49:17;9.38;;;6.38;;
31043;SDS011;17710;52.520;13.352;2023-11-18T06:51:44;11.20;;;6.43;;
31043;SDS011;17710;52.520;13.352;2023-11-18T06:54:10;11.48;;;7.18;;
31043;SDS011;17710;52.520;13.352;2023-11-18T06:56:39;13.50;;;7.47;;
31043;SDS011;17710;52.520;13.352;2023-11-18T06:59:09;9.75;;;6.68;;
31043;SDS011;17710;52.520;13.352;2023-11-18T07:01:37;10.75;;;7.15;;
31043;SDS011;17710;52.520;13.352;2023-11-18T07:04:06;10.52;;;7.55;;
31043;SDS011;17710;52.520;13.352;2023-11-18T07:06:33;13.40;;;7.50;;
31043;SDS011;17710;52.520;13.352;2023-11-18T07:09:03;13.85;;;8.13;;
31043;SDS011;17710;52.520;13.352;2023-11-18T07:11:37;14.77;;;7.43;;
31043;SDS011;17710;52.520;13.352;2023-11-18T07:14:03;13.13;;;8.73;;
31043;SDS011;17710;52.520;13.352;2023-11-18T07:16:31;14.25;;;8.57;;
31043;SDS011;17710;52.520;13.352;2023-11-18T07:18:58;14.13;;;8.18;;
31043;SDS011;17710;52.520;13.352;2023-11-18T07:21:24;14.63;;;8.10;;
31043;SDS011;17710;52.520;13.352;2023-11-18T07:23:51;13.63;;;8.02;;
31043;SDS011;17710;52.520;13.352;2023-11-18T07:26:17;13.18;;;8.07;;
31043;SDS011;17710;52.520;13.352;2023-11-18T07:28:43;14.35;;;8.52;;
31043;SDS011;17710;52.520;13.352;2023-11-18T07:31:10;14.15;;;7.95;;
31043;SDS011;17710;52.520;13.352;2023-11-18T07:33:38;11.93;;;7.95;;
31043;SDS011;17710;52.520;13.352;2023-11-18T07:36:05;15.35;;;9.45;;
31043;SDS011;17710;52.520;13.352;2023-11-18T07:38:36;18.50;;;10.20;;
31043;SDS011;17710;52.520;13.352;2023-11-18T07:41:02;13.35;;;8.25;;
31043;SDS011;17710;52.520;13.352;2023-11-18T07:43:29;16.77;;;9.00;;
31043;SDS011;17710;52.520;13.352;2023-11-18T07:45:55;12.70;;;8.27;;
31043;SDS011;17710;52.520;13.352;2023-11-18T07:48:22;13.85;;;9.57;;
31043;SDS011;17710;52.520;13.352;2023-11-18T07:50:49;13.32;;;7.93;;
31043;SDS011;17710;52.520;13.352;2023-11-18T07:53:16;14.65;;;8.10;;
31043;SDS011;17710;52.520;13.352;2023-11-18T07:55:43;15.45;;;8.57;;
31043;SDS011;17710;52.520;13.352;2023-11-18T07:58:10;16.67;;;9.55;;
31043;SDS011;17710;52.520;13.352;2023-11-18T08:00:37;13.82;;;8.77;;
31043;SDS011;17710;52.520;13.352;2023-11-18T08:03:04;12.68;;;8.35;;
31043;SDS011;17710;52.520;13.352;2023-11-18T08:05:32;12.73;;;7.90;;
31043;SDS011;17710;52.520;13.352;2023-11-18T08:08:00;11.65;;;7.88;;
31043;SDS011;17710;52.520;13.352;2023-11-18T08:10:26;14.45;;;8.13;;
31043;SDS011;17710;52.520;13.352;2023-11-18T08:12:53;14.13;;;9.10;;
31043;SDS011;17710;52.520;13.352;2023-11-18T08:15:20;13.43;;;8.57;;
31043;SDS011;17710;52.520;13.352;2023-11-18T08:17:47;16.65;;;8.52;;
31043;SDS011;17710;52.520;13.352;2023-11-18T08:20:14;13.60;;;8.50;;
31043;SDS011;17710;52.520;13.352;2023-11-18T08:22:40;11.65;;;7.97;;
31043;SDS011;17710;52.520;13.352;2023-11-18T08:25:10;13.30;;;7.50;;
31043;SDS011;17710;52.520;13.352;2023-11-18T08:27:38;13.52;;;7.32;;
31043;SDS011;17710;52.520;13.352;2023-11-18T08:30:05;13.00;;;7.20;;
31043;SDS011;17710;52.520;13.352;2023-11-18T08:32:36;14.30;;;7.38;;
31043;SDS011;17710;52.520;13.352;2023-11-18T08:35:03;11.32;;;7.80;;
31043;SDS011;17710;52.520;13.352;2023-11-18T08:37:31;14.63;;;7.03;;
31043;SDS011;17710;52.520;13.352;2023-11-18T08:40:00;11.82;;;7.65;;
31043;SDS011;17710;52.520;13.352;2023-11-18T08:42:29;14.18;;;7.55;;
31043;SDS011;17710;52.520;13.352;2023-11-18T08:44:59;16.25;;;8.13;;
31043;SDS011;17710;52.520;13.352;2023-11-18T08:47:26;10.02;;;7.20;;
31043;SDS011;17710;52.520;13.352;2023-11-18T08:49:52;11.35;;;7.40;;
31043;SDS011;17710;52.520;13.352;2023-11-18T08:52:20;12.10;;;7.75;;
31043;SDS011;17710;52.520;13.352;2023-11-18T08:54:46;15.35;;;7.95;;
31043;SDS011;17710;52.520;13.352;2023-11-18T08:57:28;11.75;;;6.82;;
31043;SDS011;17710;52.520;13.352;2023-11-18T09:00:13;12.13;;;7.10;;
31043;SDS011;17710;52.520;13.352;2023-11-18T09:03:01;11.43;;;7.28;;
31043;SDS011;17710;52.520;13.352;2023-11-18T09:05:30;13.57;;;7.45;;
31043;SDS011;17710;52.520;13.352;2023-11-18T09:07:57;8.55;;;6.18;;
31043;SDS011;17710;52.520;13.352;2023-11-18T09:10:25;9.57;;;6.93;;
31043;SDS011;17710;52.520;13.352;2023-11-18T09:12:54;11.05;;;5.95;;
31043;SDS011;17710;52.520;13.352;2023-11-18T09:15:22;11.07;;;7.00;;
31043;SDS011;17710;52.520;13.352;2023-11-18T09:17:48;11.30;;;6.60;;
31043;SDS011;17710;52.520;13.352;2023-11-18T09:20:15;8.90;;;6.70;;
31043;SDS011;17710;52.520;13.352;2023-11-18T09:22:45;9.07;;;5.97;;
31043;SDS011;17710;52.520;13.352;2023-11-18T09:25:12;10.00;;;6.47;;
31043;SDS011;17710;52.520;13.352;2023-11-18T09:27:38;13.75;;;6.07;;
31043;SDS011;17710;52.520;13.352;2023-11-18T09:30:07;10.80;;;6.70;;
31043;SDS011;17710;52.520;13.352;2023-11-18T09:32:38;9.15;;;6.75;;
31043;SDS011;17710;52.520;13.352;2023-11-18T09:35:07;10.32;;;6.60;;
31043;SDS011;17710;52.520;13.352;2023-11-18T09:37:37;8.10;;;5.72;;
31043;SDS011;17710;52.520;13.352;2023-11-18T09:40:04;9.73;;;5.60;;
31043;SDS011;17710;52.520;13.352;2023-11-18T09:42:36;9.60;;;6.07;;
31043;SDS011;17710;52.520;13.352;2023-11-18T09:45:04;9.30;;;6.00;;
31043;SDS011;17710;52.520;13.352;2023-11-18T09:47:33;9.05;;;6.28;;
31043;SDS011;17710;52.520;13.352;2023-11-18T09:50:05;8.32;;;5.95;;
31043;SDS011;17710;52.520;13.352;2023-11-18T09:52:36;10.63;;;6.15;;
31043;SDS011;17710;52.520;13.352;2023-11-18T09:55:10;10.63;;;5.50;;
31043;SDS011;17710;52.520;13.352;2023-11-18T09:57:44;8.73;;;4.95;;
31043;SDS011;17710;52.520;13.352;2023-11-18T10:00:22;9.75;;;5.40;;
31043;SDS011;17710;52.520;13.352;2023-11-18T10:02:53;7.68;;;4.97;;
31043;SDS011;17710;52.520;13.352;2023-11-18T10:05:22;7.60;;;5.25;;
31043;SDS011;17710;52.520;13.352;2023-11-18T10:07:51;7.55;;;5.25;;
31043;SDS011;17710;52.520;13.352;2023-11-18T10:10:18;6.63;;;4.30;;
31043;SDS011;17710;52.520;13.352;2023-11-18T10:12:46;6.50;;;5.05;;
31043;SDS011;17710;52.520;13.352;2023-11-18T10:15:17;8.40;;;4.95;;
31043;SDS011;17710;52.520;13.352;2023-11-18T10:17:48;8.88;;;5.72;;
31043;SDS011;17710;52.520;13.352;2023-11-18T10:20:23;8.98;;;4.63;;
31043;SDS011;17710;52.520;13.352;2023-11-18T10:23:10;7.03;;;5.07;;
31043;SDS011;17710;52.520;13.352;2023-11-18T10:25:40;8.98;;;6.18;;
31043;SDS011;17710;52.520;13.352;2023-11-18T10:28:20;9.93;;;5.88;;
31043;SDS011;17710;52.520;13.352;2023-11-18T10:30:47;6.72;;;5.18;;
31043;SDS011;17710;52.520;13.352;2023-11-18T10:33:14;10.80;;;4.90;;
31043;SDS011;17710;52.520;13.352;2023-11-18T10:35:49;7.97;;;5.30;;
31043;SDS011;17710;52.520;13.352;2023-11-18T10:38:20;8.48;;;5.63;;
31043;SDS011;17710;52.520;13.352;2023-11-18T10:40:50;10.38;;;6.57;;
31043;SDS011;17710;52.520;13.352;2023-11-18T10:43:18;10.75;;;5.90;;
31043;SDS011;17710;52.520;13.352;2023-11-18T10:45:44;11.95;;;6.40;;
31043;SDS011;17710;52.520;13.352;2023-11-18T10:48:11;13.05;;;7.07;;
31043;SDS011;17710;52.520;13.352;2023-11-18T10:50:41;20.83;;;8.00;;
31043;SDS011;17710;52.520;13.352;2023-11-18T10:53:10;10.20;;;7.25;;
31043;SDS011;17710;52.520;13.352;2023-11-18T10:55:40;14.63;;;8.48;;
31043;SDS011;17710;52.520;13.352;2023-11-18T10:58:07;13.05;;;8.35;;
31043;SDS011;17710;52.520;13.352;2023-11-18T11:00:45;14.52;;;8.15;;
31043;SDS011;17710;52.520;13.352;2023-11-18T11:03:16;12.00;;;7.03;;
31043;SDS011;17710;52.520;13.352;2023-11-18T11:05:43;12.43;;;7.22;;
31043;SDS011;17710;52.520;13.352;2023-11-18T11:08:12;10.40;;;7.22;;
31043;SDS011;17710;52.520;13.352;2023-11-18T11:10:41;13.02;;;7.70;;
31043;SDS011;17710;52.520;13.352;2023-11-18T11:13:08;12.10;;;7.30;;
31043;SDS011;17710;52.520;13.352;2023-11-18T11:15:40;12.35;;;8.20;;
31043;SDS011;17710;52.520;13.352;2023-11-18T11:18:11;11.00;;;7.28;;
31043;SDS011;17710;52.520;13.352;2023-11-18T11:20:53;10.55;;;7.15;;
31043;SDS011;17710;52.520;13.352;2023-11-18T11:23:34;10.95;;;6.75;;
31043;SDS011;17710;52.520;13.352;2023-11-18T11:26:12;11.85;;;6.80;;
31043;SDS011;17710;52.520;13.352;2023-11-18T11:28:52;13.45;;;6.80;;
31043;SDS011;17710;52.520;13.352;2023-11-18T11:31:30;10.30;;;6.95;;
31043;SDS011;17710;52.520;13.352;2023-11-18T11:34:03;11.48;;;6.30;;
31043;SDS011;17710;52.520;13.352;2023-11-18T11:36:34;11.80;;;5.90;;
31043;SDS011;17710;52.520;13.352;2023-11-18T11:39:05;8.23;;;5.88;;
31043;SDS011;17710;52.520;13.352;2023-11-18T11:41:39;9.68;;;5.57;;
31043;SDS011;17710;52.520;13.352;2023-11-18T11:44:10;10.95;;;6.38;;
31043;SDS011;17710;52.520;13.352;2023-11-18T11:46:38;9.68;;;5.63;;
31043;SDS011;17710;52.520;13.352;2023-11-18T11:49:07;9.45;;;6.22;;
31043;SDS011;17710;52.520;13.352;2023-11-18T11:51:44;8.80;;;5.60;;
31043;SDS011;17710;52.520;13.352;2023-11-18T11:54:18;9.63;;;5.78;;
31043;SDS011;17710;52.520;13.352;2023-11-18T11:56:47;9.32;;;5.32;;
31043;SDS011;17710;52.520;13.352;2023-11-18T11:59:15;7.22;;;5.28;;
31043;SDS011;17710;52.520;13.352;2023-11-18T12:01:42;8.45;;;5.40;;
31043;SDS011;17710;52.520;13.352;2023-11-18T12:04:11;6.28;;;4.85;;
31043;SDS011;17710;52.520;13.352;2023-11-18T12:06:48;6.97;;;4.90;;
31043;SDS011;17710;52.520;13.352;2023-11-18T12:09:19;7.55;;;5.30;;
31043;SDS011;17710;52.520;13.352;2023-11-18T12:11:46;11.60;;;5.43;;
31043;SDS011;17710;52.520;13.352;2023-11-18T12:14:15;9.52;;;6.10;;
31043;SDS011;17710;52.520;13.352;2023-11-18T12:17:06;11.38;;;6.20;;
31043;SDS011;17710;52.520;13.352;2023-11-18T12:19:35;8.68;;;5.00;;
31043;SDS011;17710;52.520;13.352;2023-11-18T12:22:09;11.30;;;5.45;;
31043;SDS011;17710;52.520;13.352;2023-11-18T12:24:44;8.45;;;5.57;;
31043;SDS011;17710;52.520;13.352;2023-11-18T12:27:12;6.95;;;4.78;;
31043;SDS011;17710;52.520;13.352;2023-11-18T12:29:41;7.03;;;4.70;;
31043;SDS011;17710;52.520;13.352;2023-11-18T12:32:08;5.40;;;4.30;;
31043;SDS011;17710;52.520;13.352;2023-11-18T12:34:50;10.75;;;5.82;;
31043;SDS011;17710;52.520;13.352;2023-11-18T12:37:31;8.45;;;4.85;;
31043;SDS011;17710;52.520;13.352;2023-11-18T12:40:27;12.48;;;5.80;;
31043;SDS011;17710;52.520;13.352;2023-11-18T12:43:22;9.70;;;5.43;;
31043;SDS011;17710;52.520;13.352;2023-11-18T12:49:08;8.85;;;5.30;;
31043;SDS011;17710;52.520;13.352;2023-11-18T12:51:40;8.80;;;5.43;;
31043;SDS011;17710;52.520;13.352;2023-11-18T12:54:09;8.25;;;5.72;;
31043;SDS011;17710;52.520;13.352;2023-11-18T12:56:38;10.23;;;6.10;;
31043;SDS011;17710;52.520;13.352;2023-11-18T12:59:09;11.35;;;6.30;;
31043;SDS011;17710;52.520;13.352;2023-11-18T13:01:38;10.18;;;6.32;;
31043;SDS011;17710;52.520;13.352;2023-11-18T13:04:07;10.63;;;6.53;;
31043;SDS011;17710;52.520;13.352;2023-11-18T13:06:33;10.98;;;6.47;;
31043;SDS011;17710;52.520;13.352;2023-11-18T13:09:00;11.05;;;6.22;;
31043;SDS011;17710;52.520;13.352;2023-11-18T13:11:30;11.02;;;6.68;;
31043;SDS011;17710;52.520;13.352;2023-11-18T13:14:00;7.78;;;5.13;;
31043;SDS011;17710;52.520;13.352;2023-11-18T13:16:27;6.47;;;4.40;;
31043;SDS011;17710;52.520;13.352;2023-11-18T13:18:53;5.35;;;3.95;;
31043;SDS011;17710;52.520;13.352;2023-11-18T13:21:24;5.30;;;4.13;;
31043;SDS011;17710;52.520;13.352;2023-11-18T13:23:54;8.23;;;4.72;;
31043;SDS011;17710;52.520;13.352;2023-11-18T13:26:21;7.63;;;4.60;;
31043;SDS011;17710;52.520;13.352;2023-11-18T13:28:49;10.07;;;5.28;;
31043;SDS011;17710;52.520;13.352;2023-11-18T13:31:17;8.10;;;5.40;;
31043;SDS011;17710;52.520;13.352;2023-11-18T13:33:46;8.85;;;4.68;;
31043;SDS011;17710;52.520;13.352;2023-11-18T13:36:16;9.07;;;5.50;;
31043;SDS011;17710;52.520;13.352;2023-11-18T13:38:43;10.43;;;5.78;;
31043;SDS011;17710;52.520;13.352;2023-11-18T13:41:11;11.15;;;5.93;;
31043;SDS011;17710;52.520;13.352;2023-11-18T13:43:41;13.43;;;6.90;;
31043;SDS011;17710;52.520;13.352;2023-11-18T13:46:11;9.50;;;6.35;;
31043;SDS011;17710;52.520;13.352;2023-11-18T13:48:40;10.93;;;6.28;;
31043;SDS011;17710;52.520;13.352;2023-11-18T13:51:07;10.48;;;5.85;;
31043;SDS011;17710;52.520;13.352;2023-11-18T13:53:37;8.95;;;5.65;;
31043;SDS011;17710;52.520;13.352;2023-11-18T13:56:05;9.65;;;5.80;;
31043;SDS011;17710;52.520;13.352;2023-11-18T13:58:34;9.52;;;5.75;;
31043;SDS011;17710;52.520;13.352;2023-11-18T14:01:04;9.73;;;5.53;;
31043;SDS011;17710;52.520;13.352;2023-11-18T14:03:32;13.32;;;7.40;;
31043;SDS011;17710;52.520;13.352;2023-11-18T14:06:00;11.18;;;6.20;;
31043;SDS011;17710;52.520;13.352;2023-11-18T14:08:27;10.35;;;6.45;;
31043;SDS011;17710;52.520;13.352;2023-11-18T14:10:55;11.40;;;6.72;;
31043;SDS011;17710;52.520;13.352;2023-11-18T14:13:24;10.38;;;6.40;;
31043;SDS011;17710;52.520;13.352;2023-11-18T14:15:53;11.10;;;6.75;;
31043;SDS011;17710;52.520;13.352;2023-11-18T14:18:22;12.02;;;6.78;;
31043;SDS011;17710;52.520;13.352;2023-11-18T14:20:49;12.57;;;6.97;;
31043;SDS011;17710;52.520;13.352;2023-11-18T14:23:17;13.07;;;6.93;;
31043;SDS011;17710;52.520;13.352;2023-11-18T14:25:44;14.25;;;6.70;;
31043;SDS011;17710;52.520;13.352;2023-11-18T14:28:11;9.68;;;6.47;;
31043;SDS011;17710;52.520;13.352;2023-11-18T14:30:38;11.48;;;6.82;;
31043;SDS011;17710;52.520;13.352;2023-11-18T14:33:05;14.57;;;7.63;;
31043;SDS011;17710;52.520;13.352;2023-11-18T14:35:32;13.48;;;6.45;;
31043;SDS011;17710;52.520;13.352;2023-11-18T14:37:58;14.50;;;7.82;;
31043;SDS011;17710;52.520;13.352;2023-11-18T14:40:27;13.63;;;7.72;;
31043;SDS011;17710;52.520;13.352;2023-11-18T14:42:54;12.93;;;6.90;;